Centralia, Iowa
Current Conditions -  °F | °C
As of 12:01 AM on Sunday 23 Nov 2014 (Local Time) from KDBQ Reporting Station
Overcast Overcast  
Wind Chill: 41°   Ceiling: 900
Heat Index: 48°   Visibility: 7mi
Dew Point: 47°   Wind: 21mph
Humidity: 96%   Direction: 180°S
Pressure: 29.7"   Gusts: NA
Location:  42.4241°N, 90.8165°W
Report Text: KDBQ 230601Z AUTO 18018KT 7SM BKN009 OVC017 09/08 A2970 RMK AO2 CIG 007V011 T00890083 $
Loading
Personal Weather Stations






























Interactive Weather Map New forecast layout! Learn more

10-Day Weather Forecast

Advertisements
Track Severe Weather on mobile